Time;durP1;ratioP1;P1;durP2;ratioP2;P2;SDS_P1;SDS_P2;PMS_P1;PMS_P2;Temp;Humidity;BMP_temperature;BMP_pressure;BME280_temperature;BME280_humidity;BME280_pressure;Samples;Min_cycle;Max_cycle;Signal;HPM_P1;HPM_P2
2023/11/12 00:02:22;;;;;;;;;;;7.60;90.20;;;;;;5089867;28;19998;-75
2023/11/12 00:04:48;;;;;;;;;;;7.50;90.10;;;;;;5107938;28;19912;-75
2023/11/12 00:07:14;;;;;;;;;;;7.60;90.20;;;;;;5108173;28;19915;-75
2023/11/12 00:09:40;;;;;;;;;;;7.60;90.10;;;;;;5107672;28;19920;-75
2023/11/12 00:12:07;;;;;;;;;;;7.60;90.20;;;;;;5108367;28;19947;-75
2023/11/12 00:14:33;;;;;;;;;;;7.60;90.20;;;;;;5107953;28;19912;-77
2023/11/12 00:16:59;;;;;;;;;;;7.60;90.20;;;;;;5108237;28;19912;-76
2023/11/12 00:19:24;;;;;;;;;;;7.60;90.10;;;;;;5089625;28;19911;-76
2023/11/12 00:21:50;;;;;;;;;;;7.60;90.10;;;;;;5089732;28;19916;-76
2023/11/12 00:24:18;;;;;;;;;;;7.60;90.10;;;;;;5107975;28;20052;-76
2023/11/12 00:26:44;;;;;;;;;;;7.60;90.10;;;;;;5108018;28;19915;-76
2023/11/12 00:29:10;;;;;;;;;;;7.60;90.10;;;;;;5107966;28;19912;-76
2023/11/12 00:31:35;;;;;;;;;;;7.60;90.10;;;;;;5108025;28;19938;-76
2023/11/12 00:34:01;;;;;;;;;;;7.60;90.10;;;;;;5089502;28;20437;-76
2023/11/12 00:36:27;;;;;;;;;;;7.50;90.10;;;;;;5089853;28;19964;-76
2023/11/12 00:38:52;;;;;;;;;;;7.50;90.00;;;;;;5107981;28;19923;-76
2023/11/12 00:41:19;;;;;;;;;;;7.40;90.00;;;;;;5107939;28;19912;-76
2023/11/12 00:43:44;;;;;;;;;;;7.40;90.00;;;;;;5107915;28;19915;-76
2023/11/12 00:46:10;;;;;;;;;;;7.40;90.00;;;;;;5108082;28;19911;-76
2023/11/12 00:48:36;;;;;;;;;;;7.40;90.00;;;;;;5107955;28;19919;-75
2023/11/12 00:51:01;;;;;;;;;;;7.30;90.10;;;;;;5110838;28;20295;-76
2023/11/12 00:53:28;;;;;;;;;;;7.30;90.10;;;;;;5111533;28;19969;-76
2023/11/12 00:55:55;;;;;;;;;;;7.40;90.20;;;;;;5111703;28;19916;-76
2023/11/12 00:58:20;;;;;;;;;;;7.40;90.20;;;;;;5111644;28;19965;-75
2023/11/12 01:00:46;;;;;;;;;;;7.40;90.20;;;;;;5111502;28;19959;-76
2023/11/12 01:03:14;;;;;;;;;;;7.50;90.20;;;;;;5111351;28;19918;-76
2023/11/12 01:05:40;;;;;;;;;;;7.50;90.20;;;;;;5093709;28;19988;-76
2023/11/12 01:08:06;;;;;;;;;;;7.60;90.20;;;;;;5111363;28;20442;-76
2023/11/12 01:10:32;;;;;;;;;;;7.60;90.20;;;;;;5093370;28;20292;-76
2023/11/12 01:12:59;;;;;;;;;;;7.60;90.20;;;;;;5093011;28;19916;-76
2023/11/12 01:15:26;;;;;;;;;;;7.60;90.20;;;;;;5111422;28;19912;-76
2023/11/12 01:17:52;;;;;;;;;;;7.60;90.20;;;;;;5111307;28;19927;-76
2023/11/12 01:20:17;;;;;;;;;;;7.60;90.20;;;;;;5111350;28;20325;-76
2023/11/12 01:22:43;;;;;;;;;;;7.70;90.30;;;;;;5111087;28;20387;-76
2023/11/12 01:25:09;;;;;;;;;;;7.70;90.30;;;;;;5111261;28;20283;-75
2023/11/12 01:27:34;;;;;;;;;;;7.80;90.30;;;;;;5111154;28;20002;-76
2023/11/12 01:30:00;;;;;;;;;;;7.80;90.30;;;;;;5110880;28;20010;-76
2023/11/12 01:32:26;;;;;;;;;;;7.80;90.30;;;;;;5110731;28;19922;-76
2023/11/12 01:34:52;;;;;;;;;;;7.90;90.30;;;;;;5110817;28;20018;-76
2023/11/12 01:37:17;;;;;;;;;;;8.00;90.40;;;;;;5110496;28;20002;-76
2023/11/12 01:39:43;;;;;;;;;;;8.10;90.40;;;;;;5110582;28;19916;-76
2023/11/12 01:42:11;;;;;;;;;;;8.10;90.40;;;;;;5110477;28;19938;-76
2023/11/12 01:44:37;;;;;;;;;;;8.20;90.40;;;;;;5110837;28;20002;-75
2023/11/12 01:47:04;;;;;;;;;;;8.20;90.40;;;;;;5110836;28;20401;-76
2023/11/12 01:49:31;;;;;;;;;;;8.40;90.40;;;;;;5110513;28;19923;-76
2023/11/12 01:51:57;;;;;;;;;;;8.40;90.40;;;;;;5092318;28;19915;-76
2023/11/12 01:54:24;;;;;;;;;;;8.50;90.30;;;;;;5075454;28;19973;-76
2023/11/12 01:56:55;;;;;;;;;;;8.50;90.20;;;;;;5092243;28;20346;-76
2023/11/12 01:59:21;;;;;;;;;;;8.50;90.20;;;;;;5110417;28;19957;-76
2023/11/12 02:01:50;;;;;;;;;;;8.40;90.20;;;;;;5110038;28;19925;-76
2023/11/12 02:04:17;;;;;;;;;;;8.40;90.20;;;;;;5110472;28;19927;-76
2023/11/12 02:06:42;;;;;;;;;;;8.30;90.20;;;;;;5110439;28;20364;-75
2023/11/12 02:09:09;;;;;;;;;;;8.30;90.30;;;;;;5110294;28;19967;-75
2023/11/12 02:11:36;;;;;;;;;;;8.30;90.40;;;;;;5110459;28;19912;-76
2023/11/12 02:14:02;;;;;;;;;;;8.40;90.40;;;;;;5110398;28;19919;-76
2023/11/12 02:16:27;;;;;;;;;;;8.40;90.40;;;;;;5110304;28;20287;-76
2023/11/12 02:18:54;;;;;;;;;;;8.40;90.40;;;;;;5110291;28;19922;-76
2023/11/12 02:21:24;;;;;;;;;;;8.50;90.40;;;;;;5110272;28;19919;-76
2023/11/12 02:23:49;;;;;;;;;;;8.50;90.40;;;;;;5109950;28;20299;-76
2023/11/12 02:26:15;;;;;;;;;;;8.60;90.50;;;;;;5110116;28;19919;-76
2023/11/12 02:28:41;;;;;;;;;;;8.60;90.50;;;;;;5110012;28;19911;-75
2023/11/12 02:31:06;;;;;;;;;;;8.70;90.50;;;;;;5109844;28;19954;-75
2023/11/12 02:33:32;;;;;;;;;;;8.70;90.50;;;;;;5110090;28;20012;-76
2023/11/12 02:35:58;;;;;;;;;;;8.80;90.50;;;;;;5109803;28;19992;-76
2023/11/12 02:38:24;;;;;;;;;;;8.90;90.50;;;;;;5091619;28;19912;-76
2023/11/12 02:40:49;;;;;;;;;;;8.90;90.40;;;;;;5109763;28;19912;-76
2023/11/12 02:43:16;;;;;;;;;;;9.00;90.40;;;;;;5091167;28;20364;-76
2023/11/12 02:45:42;;;;;;;;;;;9.00;90.40;;;;;;5109632;28;19933;-76
2023/11/12 02:48:07;;;;;;;;;;;9.00;90.40;;;;;;5109415;28;20006;-77
2023/11/12 02:50:34;;;;;;;;;;;9.00;90.40;;;;;;5109457;28;19923;-76
2023/11/12 02:53:00;;;;;;;;;;;9.00;90.40;;;;;;5109288;28;20274;-76
2023/11/12 02:55:33;;;;;;;;;;;9.00;90.40;;;;;;5090930;28;19911;-76
2023/11/12 02:57:59;;;;;;;;;;;9.00;90.40;;;;;;5109354;28;19908;-76
2023/11/12 03:00:28;;;;;;;;;;;9.00;90.40;;;;;;5109302;28;20375;-75
2023/11/12 03:03:00;;;;;;;;;;;9.00;90.40;;;;;;5109437;28;19912;-76
2023/11/12 03:05:26;;;;;;;;;;;9.10;90.50;;;;;;5109260;28;19916;-76
2023/11/12 03:07:52;;;;;;;;;;;9.10;90.40;;;;;;5109036;28;19962;-76
2023/11/12 03:10:17;;;;;;;;;;;9.10;90.40;;;;;;5109224;28;19954;-76
2023/11/12 03:12:43;;;;;;;;;;;9.10;90.50;;;;;;5108321;28;20380;-76
2023/11/12 03:15:11;;;;;;;;;;;9.20;90.50;;;;;;5109445;28;20026;-76
2023/11/12 03:17:37;;;;;;;;;;;9.20;90.50;;;;;;5109320;28;20320;-76
2023/11/12 03:20:04;;;;;;;;;;;9.20;90.50;;;;;;5109035;28;19922;-76
2023/11/12 03:22:33;;;;;;;;;;;9.20;90.50;;;;;;5108967;28;20021;-76
2023/11/12 03:25:00;;;;;;;;;;;9.20;90.50;;;;;;5108993;28;19977;-76
2023/11/12 03:27:26;;;;;;;;;;;9.20;90.50;;;;;;5108842;28;19923;-76
2023/11/12 03:29:52;;;;;;;;;;;9.20;90.50;;;;;;5109261;28;20263;-76
2023/11/12 03:32:21;;;;;;;;;;;9.20;90.60;;;;;;5108744;28;19916;-76
2023/11/12 03:34:49;;;;;;;;;;;9.20;90.50;;;;;;5108806;28;19912;-76
2023/11/12 03:37:15;;;;;;;;;;;9.20;90.50;;;;;;5108712;28;20004;-76
2023/11/12 03:39:41;;;;;;;;;;;9.20;90.60;;;;;;5108644;28;19975;-76
2023/11/12 03:42:06;;;;;;;;;;;9.30;90.60;;;;;;5108610;28;20003;-76
2023/11/12 03:44:32;;;;;;;;;;;9.30;90.60;;;;;;5108550;28;20333;-76
2023/11/12 03:46:58;;;;;;;;;;;9.40;90.60;;;;;;5108613;28;19937;-76
2023/11/12 03:49:23;;;;;;;;;;;9.40;90.70;;;;;;5108566;28;19912;-76
2023/11/12 03:51:49;;;;;;;;;;;9.50;90.70;;;;;;5108508;28;20355;-76
2023/11/12 03:54:14;;;;;;;;;;;9.60;90.70;;;;;;5090181;28;19915;-76
2023/11/12 03:56:40;;;;;;;;;;;9.60;90.60;;;;;;5073350;28;20363;-76
2023/11/12 03:59:06;;;;;;;;;;;9.70;90.60;;;;;;5108334;28;19916;-76
2023/11/12 04:01:31;;;;;;;;;;;9.70;90.60;;;;;;5090248;28;19953;-76
2023/11/12 04:03:57;;;;;;;;;;;9.80;90.60;;;;;;5108826;28;19916;-72
2023/11/12 04:06:22;;;;;;;;;;;9.80;90.60;;;;;;5108464;28;20006;-72
2023/11/12 04:08:48;;;;;;;;;;;9.80;90.60;;;;;;5108086;28;20022;-72
2023/11/12 04:11:13;;;;;;;;;;;9.80;90.60;;;;;;5090160;28;19923;-72
2023/11/12 04:13:39;;;;;;;;;;;9.90;90.60;;;;;;5108172;28;20299;-71
2023/11/12 04:16:05;;;;;;;;;;;9.90;90.60;;;;;;5090285;28;19916;-72
2023/11/12 04:18:31;;;;;;;;;;;9.90;90.60;;;;;;5090009;28;19958;-71
2023/11/12 04:20:58;;;;;;;;;;;9.90;90.60;;;;;;5108231;28;19911;-72
2023/11/12 04:23:23;;;;;;;;;;;9.90;90.60;;;;;;5108517;28;19919;-72
2023/11/12 04:25:49;;;;;;;;;;;10.00;90.70;;;;;;5112399;28;20288;-72
2023/11/12 04:28:15;;;;;;;;;;;10.00;90.60;;;;;;5094265;28;19979;-72
2023/11/12 04:30:41;;;;;;;;;;;10.00;90.60;;;;;;5112274;28;19923;-71
2023/11/12 04:33:07;;;;;;;;;;;10.00;90.60;;;;;;5112090;28;19916;-72
2023/11/12 04:35:32;;;;;;;;;;;10.00;90.60;;;;;;5112255;28;19970;-72
2023/11/12 04:37:58;;;;;;;;;;;10.00;90.60;;;;;;5112141;28;19911;-72
2023/11/12 04:40:23;;;;;;;;;;;10.10;90.70;;;;;;5112155;28;20409;-72
2023/11/12 04:42:50;;;;;;;;;;;10.10;90.70;;;;;;5093557;28;19916;-72
2023/11/12 04:45:16;;;;;;;;;;;10.10;90.70;;;;;;5093832;28;19935;-72
2023/11/12 04:47:43;;;;;;;;;;;10.20;90.70;;;;;;5111994;28;19927;-72
2023/11/12 04:50:09;;;;;;;;;;;10.20;90.60;;;;;;5111970;28;19919;-72
2023/11/12 04:52:34;;;;;;;;;;;10.20;90.60;;;;;;5093711;28;19986;-72
2023/11/12 04:55:00;;;;;;;;;;;10.10;90.60;;;;;;5111942;28;19919;-72
2023/11/12 04:57:25;;;;;;;;;;;10.10;90.60;;;;;;5111813;28;19918;-72
2023/11/12 04:59:51;;;;;;;;;;;10.10;90.60;;;;;;5111764;28;20362;-72
2023/11/12 05:02:17;;;;;;;;;;;10.10;90.60;;;;;;5111813;28;20010;-72
2023/11/12 05:04:43;;;;;;;;;;;10.10;90.60;;;;;;5111801;28;19958;-72
2023/11/12 05:07:08;;;;;;;;;;;10.00;90.60;;;;;;5111699;28;19916;-72
2023/11/12 05:09:35;;;;;;;;;;;10.00;90.60;;;;;;5111410;28;19924;-72
2023/11/12 05:12:01;;;;;;;;;;;9.90;90.60;;;;;;5111370;28;19912;-72
2023/11/12 05:14:27;;;;;;;;;;;9.90;90.60;;;;;;5111358;28;19918;-72
2023/11/12 05:16:52;;;;;;;;;;;9.90;90.60;;;;;;5111620;28;20028;-72
2023/11/12 05:19:18;;;;;;;;;;;9.90;90.60;;;;;;5093033;28;19912;-72
2023/11/12 05:21:46;;;;;;;;;;;9.80;90.60;;;;;;5111393;28;20381;-72
2023/11/12 05:24:12;;;;;;;;;;;9.80;90.60;;;;;;5111337;28;20346;-72
2023/11/12 05:26:38;;;;;;;;;;;9.70;90.60;;;;;;5092916;28;19919;-72
2023/11/12 05:29:04;;;;;;;;;;;9.70;90.60;;;;;;5093160;28;19912;-72
2023/11/12 05:31:32;;;;;;;;;;;9.70;90.60;;;;;;5093040;28;19915;-72
2023/11/12 05:34:02;;;;;;;;;;;9.60;90.60;;;;;;5092818;28;19916;-72
2023/11/12 05:36:27;;;;;;;;;;;9.60;90.60;;;;;;5091930;28;19912;-72
2023/11/12 05:38:53;;;;;;;;;;;9.50;90.60;;;;;;5111142;28;19912;-72
2023/11/12 05:41:19;;;;;;;;;;;9.50;90.60;;;;;;5110871;28;20410;-72
2023/11/12 05:43:46;;;;;;;;;;;9.50;90.60;;;;;;5110873;28;20269;-72
2023/11/12 05:46:12;;;;;;;;;;;9.40;90.60;;;;;;5110924;28;19912;-72
2023/11/12 05:48:37;;;;;;;;;;;9.40;90.60;;;;;;5110861;28;19912;-72
2023/11/12 05:51:03;;;;;;;;;;;9.40;90.60;;;;;;5110827;28;19911;-72
2023/11/12 05:53:28;;;;;;;;;;;9.40;90.60;;;;;;5110338;28;20458;-72
2023/11/12 05:55:54;;;;;;;;;;;9.40;90.60;;;;;;5092192;28;19919;-72
2023/11/12 05:58:20;;;;;;;;;;;9.40;90.60;;;;;;5110390;28;20350;-72
2023/11/12 06:00:46;;;;;;;;;;;9.40;90.60;;;;;;5110309;28;20002;-72
2023/11/12 06:03:11;;;;;;;;;;;9.40;90.60;;;;;;5110203;28;20018;-72
2023/11/12 06:05:37;;;;;;;;;;;9.40;90.60;;;;;;5092092;28;19966;-72
2023/11/12 06:08:03;;;;;;;;;;;9.40;90.60;;;;;;5091613;28;19934;-72
2023/11/12 06:10:29;;;;;;;;;;;9.40;90.60;;;;;;5091817;28;19911;-72
2023/11/12 06:12:55;;;;;;;;;;;9.40;90.60;;;;;;5110201;28;20040;-72
2023/11/12 06:15:25;;;;;;;;;;;9.40;90.60;;;;;;5110099;28;20291;-72
2023/11/12 06:17:54;;;;;;;;;;;9.40;90.60;;;;;;5109960;28;19919;-72
2023/11/12 06:20:20;;;;;;;;;;;9.40;90.60;;;;;;5109849;28;20393;-72
2023/11/12 06:22:46;;;;;;;;;;;9.30;90.60;;;;;;5109774;28;20006;-72
2023/11/12 06:25:11;;;;;;;;;;;9.30;90.60;;;;;;5109786;28;19935;-72
2023/11/12 06:27:40;;;;;;;;;;;9.30;90.60;;;;;;5109939;28;20004;-73
2023/11/12 06:30:07;;;;;;;;;;;9.20;90.60;;;;;;5109939;28;19955;-72
2023/11/12 06:32:33;;;;;;;;;;;9.20;90.60;;;;;;5109789;28;19937;-72
2023/11/12 06:34:59;;;;;;;;;;;9.20;90.60;;;;;;5110047;28;20000;-72
2023/11/12 06:37:25;;;;;;;;;;;9.10;90.60;;;;;;5109974;28;19951;-73
2023/11/12 06:39:50;;;;;;;;;;;9.10;90.60;;;;;;5109918;28;19954;-73
2023/11/12 06:42:16;;;;;;;;;;;9.00;90.60;;;;;;5109807;28;20834;-72
2023/11/12 06:44:42;;;;;;;;;;;9.00;90.70;;;;;;5109788;28;19912;-73
2023/11/12 06:47:07;;;;;;;;;;;9.00;90.70;;;;;;5109783;28;19918;-73
2023/11/12 06:49:33;;;;;;;;;;;9.00;90.70;;;;;;5091490;28;19923;-72
2023/11/12 06:51:59;;;;;;;;;;;9.00;90.80;;;;;;5109540;28;20319;-73
2023/11/12 06:54:27;;;;;;;;;;;9.00;90.80;;;;;;5109447;28;20443;-73
2023/11/12 06:56:56;;;;;;;;;;;9.00;90.80;;;;;;5109706;28;19919;-73
2023/11/12 06:59:21;;;;;;;;;;;9.00;90.80;;;;;;5091939;28;20307;-73
2023/11/12 07:01:47;;;;;;;;;;;9.00;90.80;;;;;;5109443;28;20009;-72
2023/11/12 07:04:12;;;;;;;;;;;9.00;90.70;;;;;;5109507;28;20015;-73
2023/11/12 07:06:38;;;;;;;;;;;9.10;90.80;;;;;;5109296;28;19934;-72
2023/11/12 07:09:04;;;;;;;;;;;9.10;90.80;;;;;;5090862;28;19977;-72
2023/11/12 07:11:30;;;;;;;;;;;9.10;90.80;;;;;;5109108;28;20415;-72
2023/11/12 07:13:55;;;;;;;;;;;9.10;90.80;;;;;;5108938;28;20299;-72
2023/11/12 07:16:21;;;;;;;;;;;9.10;90.70;;;;;;5108824;28;19912;-72
2023/11/12 07:18:47;;;;;;;;;;;9.10;90.70;;;;;;5090475;28;19907;-73
2023/11/12 07:21:12;;;;;;;;;;;9.10;90.70;;;;;;5109054;28;20010;-73
2023/11/12 07:23:38;;;;;;;;;;;9.10;90.70;;;;;;5109044;28;19916;-73
2023/11/12 07:26:04;;;;;;;;;;;9.10;90.80;;;;;;5090864;28;20356;-73
2023/11/12 07:28:30;;;;;;;;;;;9.10;90.80;;;;;;5109000;28;20149;-72
2023/11/12 07:30:56;;;;;;;;;;;9.10;90.80;;;;;;5109011;28;19908;-73
2023/11/12 07:33:21;;;;;;;;;;;9.00;90.80;;;;;;5108573;28;19915;-73
2023/11/12 07:35:48;;;;;;;;;;;9.00;90.80;;;;;;5108850;28;20030;-72
2023/11/12 07:38:14;;;;;;;;;;;9.00;90.80;;;;;;5090638;28;19912;-72
2023/11/12 07:40:41;;;;;;;;;;;9.10;90.80;;;;;;5108540;28;19919;-72
2023/11/12 07:43:07;;;;;;;;;;;9.00;90.80;;;;;;5108389;28;19908;-72
2023/11/12 07:45:33;;;;;;;;;;;9.00;90.80;;;;;;5108739;28;19916;-72
2023/11/12 07:47:59;;;;;;;;;;;9.00;90.80;;;;;;5108506;28;20344;-72
2023/11/12 07:50:25;;;;;;;;;;;9.00;90.80;;;;;;5108511;28;20383;-72
2023/11/12 07:52:50;;;;;;;;;;;9.00;90.80;;;;;;5108331;28;20415;-72
2023/11/12 07:55:16;;;;;;;;;;;9.10;90.80;;;;;;5108421;28;19912;-72
2023/11/12 07:57:42;;;;;;;;;;;9.10;90.80;;;;;;5108213;28;20257;-72
2023/11/12 08:00:09;;;;;;;;;;;9.10;90.80;;;;;;5108177;28;19918;-72
2023/11/12 08:02:35;;;;;;;;;;;9.20;90.80;;;;;;5107749;28;19962;-72
2023/11/12 08:05:03;;;;;;;;;;;9.10;90.80;;;;;;5108395;28;19947;-72
2023/11/12 08:07:29;;;;;;;;;;;9.10;90.80;;;;;;5107969;28;19916;-72
2023/11/12 08:09:54;;;;;;;;;;;9.20;90.80;;;;;;5108308;28;20352;-72
2023/11/12 08:12:20;;;;;;;;;;;9.20;90.80;;;;;;5089857;28;20011;-73
2023/11/12 08:14:45;;;;;;;;;;;9.20;90.80;;;;;;5108267;28;19944;-72
2023/11/12 08:17:12;;;;;;;;;;;9.20;90.80;;;;;;5089905;28;19912;-72
2023/11/12 08:19:37;;;;;;;;;;;9.20;90.80;;;;;;5089560;28;20018;-72
2023/11/12 08:22:03;;;;;;;;;;;9.20;90.80;;;;;;5089892;28;20030;-72
2023/11/12 08:24:29;;;;;;;;;;;9.20;90.80;;;;;;5108373;28;19908;-72
2023/11/12 08:26:55;;;;;;;;;;;9.20;90.80;;;;;;5108217;28;19919;-72
2023/11/12 08:29:21;;;;;;;;;;;9.30;90.90;;;;;;5090122;28;20317;-72
2023/11/12 08:31:46;;;;;;;;;;;9.30;90.80;;;;;;5107954;28;19919;-72
2023/11/12 08:34:12;;;;;;;;;;;9.30;90.80;;;;;;5089653;28;19964;-72
2023/11/12 08:36:37;;;;;;;;;;;9.40;90.90;;;;;;5107954;28;19912;-72
2023/11/12 08:39:05;;;;;;;;;;;9.40;90.80;;;;;;5107746;28;19916;-73
2023/11/12 08:41:31;;;;;;;;;;;9.40;90.80;;;;;;5108227;28;19918;-72
2023/11/12 08:43:56;;;;;;;;;;;9.40;90.80;;;;;;5107982;28;19950;-72
2023/11/12 08:46:23;;;;;;;;;;;9.40;90.80;;;;;;5089775;28;20012;-72
2023/11/12 08:48:48;;;;;;;;;;;9.50;90.90;;;;;;5089817;28;19933;-73
2023/11/12 08:51:14;;;;;;;;;;;9.50;90.90;;;;;;5108024;28;20197;-73
2023/11/12 08:53:40;;;;;;;;;;;9.60;90.90;;;;;;5107673;28;19937;-73
2023/11/12 08:56:07;;;;;;;;;;;9.70;90.90;;;;;;5107923;28;19915;-72
2023/11/12 08:58:34;;;;;;;;;;;9.70;90.90;;;;;;5107660;28;20475;-72
2023/11/12 09:01:03;;;;;;;;;;;9.80;90.90;;;;;;5107650;28;19951;-72
2023/11/12 09:03:30;;;;;;;;;;;9.80;91.00;;;;;;5107692;28;20247;-72
2023/11/12 09:05:55;;;;;;;;;;;9.80;90.80;;;;;;5107460;28;19974;-73
2023/11/12 09:08:21;;;;;;;;;;;9.90;90.90;;;;;;5107473;28;20416;-73
2023/11/12 09:10:47;;;;;;;;;;;9.90;90.90;;;;;;5108685;28;19908;-73
2023/11/12 09:13:13;;;;;;;;;;;9.90;90.90;;;;;;5111211;28;19926;-73
2023/11/12 09:15:39;;;;;;;;;;;9.90;90.90;;;;;;5111308;28;20317;-72
2023/11/12 09:18:05;;;;;;;;;;;10.00;90.90;;;;;;5111162;28;20424;-72
2023/11/12 09:20:31;;;;;;;;;;;10.00;90.90;;;;;;5110979;28;19916;-72
2023/11/12 09:22:56;;;;;;;;;;;10.10;90.90;;;;;;5092790;28;20033;-72
2023/11/12 09:25:22;;;;;;;;;;;10.10;90.90;;;;;;5110753;28;20001;-72
2023/11/12 09:27:47;;;;;;;;;;;10.20;90.90;;;;;;5092541;28;20006;-73
2023/11/12 09:30:13;;;;;;;;;;;10.20;90.90;;;;;;5092309;28;20002;-73
2023/11/12 09:32:39;;;;;;;;;;;10.30;91.00;;;;;;5110612;28;19912;-72
2023/11/12 09:35:05;;;;;;;;;;;10.40;91.00;;;;;;5110379;28;20038;-67
2023/11/12 09:37:31;;;;;;;;;;;10.50;90.90;;;;;;5110715;28;20014;-72
2023/11/12 09:39:57;;;;;;;;;;;10.60;90.90;;;;;;5110448;28;20462;-72
2023/11/12 09:42:25;;;;;;;;;;;10.60;90.90;;;;;;5110496;28;19912;-72
2023/11/12 09:44:53;;;;;;;;;;;10.60;90.90;;;;;;5091995;28;20387;-73
2023/11/12 09:47:32;;;;;;;;;;;10.70;90.90;;;;;;5092191;28;19912;-72
2023/11/12 09:49:58;;;;;;;;;;;10.60;90.80;;;;;;5110418;28;19908;-72
2023/11/12 09:52:24;;;;;;;;;;;10.60;90.90;;;;;;5091835;28;19932;-72
2023/11/12 09:54:51;;;;;;;;;;;10.70;91.00;;;;;;5110509;28;20244;-72
2023/11/12 09:57:17;;;;;;;;;;;10.70;91.00;;;;;;5109747;28;19955;-72
2023/11/12 09:59:43;;;;;;;;;;;10.80;91.00;;;;;;5109836;28;20039;-71
2023/11/12 10:02:10;;;;;;;;;;;10.80;90.90;;;;;;5110068;28;20414;-72
2023/11/12 10:04:36;;;;;;;;;;;10.80;90.90;;;;;;5109902;28;19920;-72
2023/11/12 10:07:03;;;;;;;;;;;10.80;91.20;;;;;;5109917;28;19998;-71
2023/11/12 10:09:30;;;;;;;;;;;10.90;91.00;;;;;;5109902;28;19931;-72
2023/11/12 10:12:02;;;;;;;;;;;10.90;91.00;;;;;;5109844;28;19908;-73
2023/11/12 10:14:27;;;;;;;;;;;10.90;91.00;;;;;;5109623;28;19911;-72
2023/11/12 10:17:04;;;;;;;;;;;10.90;91.00;;;;;;5109667;28;19916;-72
2023/11/12 10:19:29;;;;;;;;;;;10.90;91.00;;;;;;5109558;28;20026;-72
2023/11/12 10:21:56;;;;;;;;;;;11.00;91.00;;;;;;5091142;28;20020;-72
2023/11/12 10:24:22;;;;;;;;;;;11.00;91.00;;;;;;5109655;28;19965;-72
2023/11/12 10:26:47;;;;;;;;;;;10.90;91.00;;;;;;5091305;28;20425;-72
2023/11/12 10:29:20;;;;;;;;;;;10.90;91.00;;;;;;5090888;28;19912;-72
2023/11/12 10:31:46;;;;;;;;;;;11.00;91.10;;;;;;5074316;28;19996;-72
2023/11/12 10:34:15;;;;;;;;;;;11.00;91.10;;;;;;5091052;28;20368;-72
2023/11/12 10:37:00;;;;;;;;;;;11.00;91.10;;;;;;5109430;28;19912;-72
2023/11/12 10:39:32;;;;;;;;;;;11.00;91.10;;;;;;5109061;28;19956;-72
2023/11/12 10:41:58;;;;;;;;;;;11.20;91.20;;;;;;5109022;28;20367;-72
2023/11/12 10:44:25;;;;;;;;;;;11.30;91.30;;;;;;5109082;28;19922;-72
2023/11/12 10:46:53;;;;;;;;;;;11.50;91.30;;;;;;5109353;28;19908;-72
2023/11/12 10:49:22;;;;;;;;;;;11.70;91.30;;;;;;5109401;28;20359;-72
2023/11/12 10:51:48;;;;;;;;;;;11.80;91.20;;;;;;5108981;28;19915;-73
2023/11/12 10:54:14;;;;;;;;;;;12.00;91.30;;;;;;5108644;28;19912;-72
2023/11/12 10:56:40;;;;;;;;;;;12.20;91.30;;;;;;5108704;28;19959;-73
2023/11/12 10:59:06;;;;;;;;;;;12.30;91.20;;;;;;5108641;28;19912;-73
2023/11/12 11:01:36;;;;;;;;;;;12.40;91.10;;;;;;5108736;28;19912;-72
2023/11/12 11:04:03;;;;;;;;;;;12.50;91.00;;;;;;5108431;28;19916;-72
2023/11/12 11:06:29;;;;;;;;;;;12.60;91.10;;;;;;5108206;28;19907;-71
2023/11/12 11:08:55;;;;;;;;;;;12.70;91.10;;;;;;5108281;28;20065;-71
2023/11/12 11:11:22;;;;;;;;;;;12.70;91.10;;;;;;5108416;28;20391;-71
2023/11/12 11:13:48;;;;;;;;;;;12.80;91.20;;;;;;5090019;28;20372;-71
2023/11/12 11:16:34;;;;;;;;;;;12.90;91.20;;;;;;5108262;28;19923;-71
2023/11/12 11:18:59;;;;;;;;;;;12.90;91.20;;;;;;5108282;28;19907;-71
2023/11/12 11:21:25;;;;;;;;;;;13.10;91.30;;;;;;5089930;28;20422;-71
2023/11/12 11:23:55;;;;;;;;;;;13.30;91.40;;;;;;5108273;28;19916;-71
2023/11/12 11:26:24;;;;;;;;;;;13.40;91.30;;;;;;5108111;28;19908;-71
2023/11/12 11:29:05;;;;;;;;;;;13.60;91.30;;;;;;5089841;28;19911;-71
2023/11/12 11:31:37;;;;;;;;;;;13.70;91.20;;;;;;5107664;28;19929;-72
2023/11/12 11:34:03;;;;;;;;;;;13.70;91.20;;;;;;5107726;28;19934;-72
2023/11/12 11:36:30;;;;;;;;;;;13.80;91.20;;;;;;5089678;28;20432;-71
2023/11/12 11:39:11;;;;;;;;;;;13.90;91.30;;;;;;5107795;28;20421;-71
2023/11/12 11:41:58;;;;;;;;;;;14.10;91.30;;;;;;5108009;28;19914;-72
2023/11/12 11:44:37;;;;;;;;;;;14.20;91.40;;;;;;5108436;28;19908;-71
2023/11/12 11:47:19;;;;;;;;;;;14.70;91.70;;;;;;5107325;28;19915;-72
2023/11/12 11:49:44;;;;;;;;;;;15.00;91.40;;;;;;5089255;28;19908;-71
2023/11/12 11:52:10;;;;;;;;;;;15.00;91.10;;;;;;5089160;28;19915;-72
2023/11/12 11:54:36;;;;;;;;;;;14.80;91.00;;;;;;5089111;28;20029;-71
2023/11/12 11:57:02;;;;;;;;;;;14.60;90.90;;;;;;5107104;28;19915;-71
2023/11/12 11:59:35;;;;;;;;;;;14.50;91.00;;;;;;5107575;28;19908;-71
2023/11/12 12:02:01;;;;;;;;;;;14.40;91.30;;;;;;5089298;28;19918;-72
2023/11/12 12:04:27;;;;;;;;;;;14.40;91.60;;;;;;5089422;28;20313;-72
2023/11/12 12:06:53;;;;;;;;;;;14.50;91.30;;;;;;5107322;28;19929;-73
2023/11/12 12:09:19;;;;;;;;;;;14.50;91.30;;;;;;5107323;28;20264;-72
2023/11/12 12:11:53;;;;;;;;;;;14.50;91.30;;;;;;5106742;28;20569;-72
2023/11/12 12:14:21;;;;;;;;;;;14.40;91.20;;;;;;5107219;28;19911;-72
2023/11/12 12:16:47;;;;;;;;;;;14.30;91.10;;;;;;5106932;28;19946;-71
2023/11/12 12:19:14;;;;;;;;;;;14.20;91.10;;;;;;5106739;28;19954;-72
2023/11/12 12:21:46;;;;;;;;;;;14.10;91.30;;;;;;5107201;28;19912;-71
2023/11/12 12:24:12;;;;;;;;;;;14.10;91.30;;;;;;5107561;28;19912;-72
2023/11/12 12:26:37;;;;;;;;;;;14.10;91.40;;;;;;5107317;28;20428;-72
2023/11/12 12:29:21;;;;;;;;;;;14.10;91.40;;;;;;5088730;28;20037;-72
2023/11/12 12:31:51;;;;;;;;;;;14.20;91.40;;;;;;5107405;28;19961;-72
2023/11/12 12:34:19;;;;;;;;;;;14.30;91.40;;;;;;5107504;28;19920;-72
2023/11/12 12:37:02;;;;;;;;;;;14.30;91.40;;;;;;5107359;28;20191;-72
2023/11/12 12:39:28;;;;;;;;;;;14.40;91.40;;;;;;5089008;28;19908;-72
2023/11/12 12:41:58;;;;;;;;;;;14.40;91.40;;;;;;5088734;28;19936;-72
2023/11/12 12:44:24;;;;;;;;;;;14.50;91.50;;;;;;5089073;28;19912;-72
2023/11/12 12:46:51;;;;;;;;;;;14.50;91.50;;;;;;5110816;28;19955;-72
2023/11/12 12:49:30;;;;;;;;;;;14.60;91.50;;;;;;5111071;28;19912;-72
2023/11/12 12:51:57;;;;;;;;;;;14.70;91.50;;;;;;5092840;28;19907;-72
2023/11/12 12:54:23;;;;;;;;;;;14.60;91.30;;;;;;5110789;28;20351;-72
2023/11/12 12:56:49;;;;;;;;;;;14.60;91.30;;;;;;5110599;28;19937;-71
2023/11/12 12:59:15;;;;;;;;;;;14.50;91.40;;;;;;5110164;28;20252;-72
2023/11/12 13:01:41;;;;;;;;;;;14.50;91.40;;;;;;5110346;28;19916;-72
2023/11/12 13:04:08;;;;;;;;;;;14.60;91.40;;;;;;5110796;28;19924;-71
2023/11/12 13:06:40;;;;;;;;;;;14.50;91.40;;;;;;5110951;28;19946;-71
2023/11/12 13:09:26;;;;;;;;;;;14.50;91.40;;;;;;5110408;28;20007;-72
2023/11/12 13:11:52;;;;;;;;;;;14.50;91.40;;;;;;5110422;28;19964;-72
2023/11/12 13:14:19;;;;;;;;;;;14.60;91.70;;;;;;5110410;28;20007;-72
2023/11/12 13:16:45;;;;;;;;;;;14.80;91.80;;;;;;5109526;28;19930;-71
2023/11/12 13:19:14;;;;;;;;;;;15.00;91.70;;;;;;5110105;28;19915;-72
2023/11/12 13:21:43;;;;;;;;;;;15.00;91.50;;;;;;5110225;28;19912;-71
2023/11/12 13:24:10;;;;;;;;;;;14.90;91.40;;;;;;5110160;28;20383;-71
2023/11/12 13:26:38;;;;;;;;;;;14.90;91.60;;;;;;5110297;28;20384;-71
2023/11/12 13:29:07;;;;;;;;;;;14.80;91.40;;;;;;5110365;28;19915;-71
2023/11/12 13:31:36;;;;;;;;;;;14.90;91.70;;;;;;5092469;28;20359;-71
2023/11/12 13:34:04;;;;;;;;;;;14.90;91.70;;;;;;5091987;28;19924;-71
2023/11/12 13:36:29;;;;;;;;;;;14.90;91.90;;;;;;5110135;28;19949;-71
2023/11/12 13:38:55;;;;;;;;;;;15.00;92.10;;;;;;5109571;28;20003;-71
2023/11/12 13:41:21;;;;;;;;;;;15.20;92.30;;;;;;5109821;28;20379;-72
2023/11/12 13:43:48;;;;;;;;;;;15.30;92.30;;;;;;5091897;28;19912;-71
2023/11/12 13:46:14;;;;;;;;;;;15.50;92.40;;;;;;5091399;28;19961;-71
2023/11/12 13:48:40;;;;;;;;;;;15.60;92.30;;;;;;5091351;28;19907;-71
2023/11/12 13:51:09;;;;;;;;;;;15.60;92.30;;;;;;5109788;28;19930;-71
2023/11/12 13:53:38;;;;;;;;;;;15.60;92.30;;;;;;5109626;28;20012;-71
2023/11/12 13:56:06;;;;;;;;;;;15.60;92.20;;;;;;5108922;28;20014;-71
2023/11/12 13:58:33;;;;;;;;;;;15.60;92.30;;;;;;5109439;28;19916;-71
2023/11/12 14:00:59;;;;;;;;;;;15.70;92.50;;;;;;5109779;28;20244;-71
2023/11/12 14:03:25;;;;;;;;;;;15.80;92.20;;;;;;5109568;28;19908;-70
2023/11/12 14:05:52;;;;;;;;;;;15.70;91.90;;;;;;5109742;28;20166;-71
2023/11/12 14:08:17;;;;;;;;;;;15.40;91.70;;;;;;5109177;28;19959;-71
2023/11/12 14:10:48;;;;;;;;;;;15.20;91.60;;;;;;5109418;28;19958;-72
2023/11/12 14:13:14;;;;;;;;;;;14.90;91.60;;;;;;5090334;28;19924;-72
2023/11/12 14:15:43;;;;;;;;;;;14.70;91.60;;;;;;5109415;28;20347;-71
2023/11/12 14:18:10;;;;;;;;;;;14.40;91.60;;;;;;5109210;28;20371;-71
2023/11/12 14:20:35;;;;;;;;;;;14.20;91.60;;;;;;5109423;28;19911;-72
2023/11/12 14:23:01;;;;;;;;;;;14.10;91.70;;;;;;5109427;28;19915;-72